createdAt,value
2022-11-19T00:00:39.850Z,-0.60
2022-11-19T00:03:31.813Z,-0.50
2022-11-19T00:06:21.792Z,-0.40
2022-11-19T00:09:14.293Z,-0.30
2022-11-19T00:12:20.507Z,-0.40
2022-11-19T00:15:09.833Z,-0.60
2022-11-19T00:18:00.768Z,-0.70
2022-11-19T00:20:50.966Z,-0.70
2022-11-19T00:23:40.615Z,-0.50
2022-11-19T00:26:29.141Z,-0.60
2022-11-19T00:29:18.256Z,-0.60
2022-11-19T00:32:06.954Z,-0.70
2022-11-19T00:34:56.789Z,-0.80
2022-11-19T00:37:45.244Z,-0.80
2022-11-19T00:40:33.676Z,-0.70
2022-11-19T00:43:39.815Z,-0.70
2022-11-19T00:46:31.738Z,-0.80
2022-11-19T00:49:21.863Z,-1.00
2022-11-19T00:52:12.002Z,-1.00
2022-11-19T00:55:00.474Z,-0.80
2022-11-19T00:57:48.985Z,-0.70
2022-11-19T01:00:39.014Z,-0.70
2022-11-19T01:03:28.206Z,-0.50
2022-11-19T01:06:19.600Z,-0.70
2022-11-19T01:09:10.098Z,-0.60
2022-11-19T01:12:00.463Z,-0.60
2022-11-19T01:14:49.087Z,-0.60
2022-11-19T01:17:37.539Z,-0.50
2022-11-19T01:20:27.991Z,-0.80
2022-11-19T01:23:16.636Z,-0.60
2022-11-19T01:26:11.163Z,-0.50
2022-11-19T01:29:01.008Z,-0.40
2022-11-19T01:31:49.473Z,-0.50
2022-11-19T01:34:37.930Z,-0.40
2022-11-19T01:37:29.127Z,-0.30
2022-11-19T01:40:19.996Z,-0.20
2022-11-19T01:43:17.219Z,0.00
2022-11-19T01:46:10.036Z,0.00
2022-11-19T01:49:05.566Z,-0.20
2022-11-19T01:52:01.588Z,-0.10
2022-11-19T01:54:56.348Z,0.00
2022-11-19T01:57:52.343Z,0.00
2022-11-19T02:00:42.643Z,0.20
2022-11-19T02:03:42.520Z,0.20
2022-11-19T02:06:37.639Z,-0.10
2022-11-19T02:09:34.497Z,0.00
2022-11-19T02:12:31.643Z,0.00
2022-11-19T02:15:36.463Z,-0.30
2022-11-19T02:18:50.079Z,-0.20
2022-11-19T02:21:57.679Z,-0.20
2022-11-19T02:24:58.783Z,0.00
2022-11-19T02:28:23.427Z,-0.10
2022-11-19T02:31:31.386Z,-0.20
2022-11-19T02:34:35.503Z,0.00
2022-11-19T02:37:34.988Z,-0.30
2022-11-19T02:40:29.894Z,-0.30
2022-11-19T02:43:27.395Z,-0.30
2022-11-19T02:46:26.611Z,-0.10
2022-11-19T02:49:19.206Z,0.00
2022-11-19T02:52:16.545Z,0.20
2022-11-19T02:55:12.974Z,0.20
2022-11-19T02:58:34.899Z,0.00
2022-11-19T03:01:43.404Z,-0.20
2022-11-19T03:04:43.293Z,-0.30
2022-11-19T03:07:45.142Z,0.00
2022-11-19T03:10:48.506Z,-0.10
2022-11-19T03:14:33.348Z,0.00
2022-11-19T03:17:37.016Z,0.00
2022-11-19T03:20:30.631Z,-0.20
2022-11-19T03:23:37.071Z,-0.50
2022-11-19T03:26:45.443Z,-0.50
2022-11-19T03:29:39.006Z,-0.40
2022-11-19T03:33:05.987Z,-0.40
2022-11-19T03:36:34.327Z,-0.20
2022-11-19T03:39:31.290Z,-0.10
2022-11-19T03:42:24.023Z,-0.20
2022-11-19T03:45:23.353Z,-0.10
2022-11-19T03:48:40.745Z,-0.10
2022-11-19T03:51:56.976Z,-0.10
2022-11-19T03:54:57.218Z,0.00
2022-11-19T03:58:12.874Z,0.00
2022-11-19T04:01:19.423Z,0.00
2022-11-19T04:04:33.918Z,0.10
2022-11-19T04:07:30.649Z,0.20
2022-11-19T04:10:39.218Z,0.40
2022-11-19T04:13:45.859Z,0.40
2022-11-19T04:16:46.472Z,0.10
2022-11-19T04:20:34.966Z,0.30
2022-11-19T04:23:23.219Z,-0.10
2022-11-19T04:26:34.522Z,0.20
2022-11-19T04:29:22.917Z,0.20
2022-11-19T04:32:11.432Z,0.30
2022-11-19T04:35:01.472Z,0.40
2022-11-19T04:37:50.008Z,0.10
2022-11-19T04:40:39.210Z,0.00
2022-11-19T04:43:27.752Z,0.10
2022-11-19T04:46:16.230Z,0.10
2022-11-19T04:49:04.851Z,-0.10
2022-11-19T04:51:54.834Z,-0.40
2022-11-19T04:54:44.232Z,0.00
2022-11-19T04:57:32.745Z,0.10
2022-11-19T05:00:21.276Z,0.10
2022-11-19T05:03:10.051Z,0.00
2022-11-19T05:05:58.510Z,0.00
2022-11-19T05:08:48.381Z,0.10
2022-11-19T05:11:36.872Z,0.10
2022-11-19T05:14:30.105Z,0.20
2022-11-19T05:17:19.134Z,-0.30
2022-11-19T05:20:09.370Z,-0.10
2022-11-19T05:22:57.903Z,-0.40
2022-11-19T05:25:47.912Z,-0.20
2022-11-19T05:28:40.224Z,-0.20
2022-11-19T05:31:28.879Z,0.00
2022-11-19T05:34:17.446Z,0.00
2022-11-19T05:37:06.229Z,0.00
2022-11-19T05:39:54.730Z,-0.20
2022-11-19T05:42:44.559Z,-0.20
2022-11-19T05:45:33.106Z,0.00
2022-11-19T05:48:21.597Z,0.10
2022-11-19T05:51:13.825Z,0.10
2022-11-19T05:54:02.426Z,0.20
2022-11-19T05:56:50.964Z,0.20
2022-11-19T05:59:44.696Z,0.00
2022-11-19T06:02:33.185Z,0.00
2022-11-19T06:05:21.622Z,0.00
2022-11-19T06:08:10.179Z,0.10
2022-11-19T06:10:58.712Z,0.20
2022-11-19T06:13:47.155Z,0.10
2022-11-19T06:16:36.983Z,0.00
2022-11-19T06:19:26.474Z,0.10
2022-11-19T06:22:14.893Z,0.20
2022-11-19T06:25:03.665Z,0.00
2022-11-19T06:27:52.195Z,0.10
2022-11-19T06:30:40.727Z,0.00
2022-11-19T06:33:30.496Z,0.10
2022-11-19T06:36:19.307Z,0.30
2022-11-19T06:39:07.961Z,0.30
2022-11-19T06:42:16.567Z,0.40
2022-11-19T06:45:06.015Z,0.10
2022-11-19T06:47:54.449Z,0.00
2022-11-19T06:50:46.229Z,0.00
2022-11-19T06:53:34.763Z,-0.10
2022-11-19T06:56:23.189Z,0.00
2022-11-19T06:59:11.747Z,0.10
2022-11-19T07:02:00.422Z,0.00
2022-11-19T07:04:49.037Z,0.20
2022-11-19T07:07:38.915Z,0.30
2022-11-19T07:10:27.472Z,0.30
2022-11-19T07:13:15.924Z,0.50
2022-11-19T07:16:04.809Z,0.50
2022-11-19T07:18:53.274Z,0.50
2022-11-19T07:21:41.682Z,0.40
2022-11-19T07:24:31.550Z,0.40
2022-11-19T07:27:20.208Z,0.40
2022-11-19T07:30:10.743Z,0.40
2022-11-19T07:32:59.582Z,0.70
2022-11-19T07:35:48.458Z,0.60
2022-11-19T07:38:37.546Z,0.60
2022-11-19T07:41:44.830Z,0.40
2022-11-19T07:44:33.423Z,0.60
2022-11-19T07:47:22.149Z,0.80
2022-11-19T07:50:11.351Z,0.50
2022-11-19T07:53:00.364Z,0.50
2022-11-19T07:55:48.863Z,0.50
2022-11-19T07:58:38.752Z,0.50
2022-11-19T08:01:28.361Z,0.50
2022-11-19T08:04:16.888Z,0.40
2022-11-19T08:07:05.947Z,0.20
2022-11-19T08:09:54.464Z,0.20
2022-11-19T08:13:03.106Z,0.50
2022-11-19T08:15:52.984Z,0.40
2022-11-19T08:18:40.793Z,0.50
2022-11-19T08:21:29.355Z,0.50
2022-11-19T08:24:20.831Z,0.50
2022-11-19T08:27:09.617Z,0.70
2022-11-19T08:29:58.170Z,0.80
2022-11-19T08:32:48.226Z,1.20
2022-11-19T08:35:37.754Z,1.30
2022-11-19T08:38:26.553Z,1.60
2022-11-19T08:41:32.427Z,1.50
2022-11-19T08:44:21.608Z,1.40
2022-11-19T08:47:10.693Z,1.50
2022-11-19T08:50:00.587Z,1.50
2022-11-19T08:52:55.511Z,1.20
2022-11-19T08:55:44.168Z,1.30
2022-11-19T08:58:32.664Z,1.60
2022-11-19T09:01:21.785Z,1.40
2022-11-19T09:04:10.366Z,1.60
2022-11-19T09:07:00.403Z,1.60
2022-11-19T09:09:48.958Z,1.70
2022-11-19T09:12:37.674Z,1.60
2022-11-19T09:15:26.177Z,1.50
2022-11-19T09:18:15.018Z,1.60
2022-11-19T09:21:03.465Z,1.70
2022-11-19T09:23:53.276Z,1.40
2022-11-19T09:26:41.741Z,1.40
2022-11-19T09:29:30.588Z,1.60
2022-11-19T09:32:25.069Z,1.60
2022-11-19T09:35:14.312Z,1.60
2022-11-19T09:38:02.837Z,1.70
2022-11-19T09:40:55.045Z,1.60
2022-11-19T09:43:52.265Z,1.50
2022-11-19T09:46:48.947Z,1.40
2022-11-19T09:49:40.669Z,1.20
2022-11-19T09:52:33.891Z,1.10
2022-11-19T09:57:04.647Z,1.20
2022-11-19T09:59:58.567Z,1.20
2022-11-19T15:17:36.912Z,0.40
2022-11-19T15:20:30.141Z,0.30
2022-11-19T15:23:24.588Z,0.30
2022-11-19T15:26:22.987Z,0.30
2022-11-19T15:29:19.785Z,0.20
2022-11-19T15:32:21.932Z,0.30
2022-11-19T15:35:55.848Z,0.30
2022-11-19T15:38:49.404Z,0.20
2022-11-19T15:41:43.089Z,0.10
2022-11-19T15:44:38.635Z,0.30
2022-11-19T15:47:38.607Z,0.30
2022-11-19T15:50:29.224Z,0.20
2022-11-19T15:53:19.521Z,0.10
2022-11-19T15:56:13.081Z,0.00
2022-11-19T15:59:03.292Z,0.00
2022-11-19T16:02:01.115Z,0.00
2022-11-19T16:04:51.135Z,0.00
2022-11-19T16:07:41.833Z,0.00
2022-11-19T16:10:32.444Z,-0.10
2022-11-19T16:13:40.553Z,0.00
2022-11-19T16:16:48.138Z,0.00
2022-11-19T16:19:36.971Z,-0.10
2022-11-19T16:22:25.742Z,-0.10
2022-11-19T16:25:20.543Z,0.00
2022-11-19T16:28:12.676Z,-0.10
2022-11-19T16:31:03.090Z,-0.20
2022-11-19T16:33:55.627Z,-0.10
2022-11-19T16:36:48.575Z,-0.10
2022-11-19T16:39:37.155Z,-0.10
2022-11-19T16:42:28.407Z,-0.10
2022-11-19T16:45:22.668Z,0.00
2022-11-19T16:48:44.632Z,0.00
2022-11-19T16:51:39.666Z,0.00
2022-11-19T16:54:48.684Z,-0.20
2022-11-19T16:57:38.599Z,-0.10
2022-11-19T17:00:31.603Z,-0.20
2022-11-19T17:03:34.514Z,-0.10
2022-11-19T17:06:25.800Z,-0.20
2022-11-19T17:09:33.593Z,-0.30
2022-11-19T17:12:27.802Z,-0.30
2022-11-19T17:15:38.954Z,-0.20
2022-11-19T17:18:31.241Z,-0.20
2022-11-19T17:21:26.978Z,-0.10
2022-11-19T17:24:19.768Z,-0.10
2022-11-19T17:27:23.744Z,0.00
2022-11-19T17:30:21.872Z,0.10
2022-11-19T17:33:17.767Z,-0.10
2022-11-19T17:36:14.366Z,0.00
2022-11-19T17:39:03.233Z,0.00
2022-11-19T17:42:10.864Z,-0.10
2022-11-19T17:45:02.751Z,0.00
2022-11-19T17:47:54.650Z,0.00
2022-11-19T17:50:44.488Z,-0.20
2022-11-19T17:53:33.027Z,-0.10
2022-11-19T17:56:23.206Z,-0.10
2022-11-19T17:59:11.749Z,-0.20
2022-11-19T18:02:00.264Z,-0.20
2022-11-19T18:04:49.723Z,-0.10
2022-11-19T18:07:39.725Z,0.00
2022-11-19T18:10:28.299Z,0.00
2022-11-19T18:13:21.208Z,0.00
2022-11-19T18:16:15.660Z,0.10
2022-11-19T18:19:10.468Z,0.20
2022-11-19T18:22:00.087Z,0.20
2022-11-19T18:24:51.449Z,0.30
2022-11-19T18:27:39.962Z,0.30
2022-11-19T18:30:28.516Z,0.20
2022-11-19T18:33:17.009Z,0.00
2022-11-19T18:36:06.154Z,0.10
2022-11-19T18:38:55.679Z,0.20
2022-11-19T18:41:45.836Z,0.10
2022-11-19T18:44:33.552Z,0.00
2022-11-19T18:47:24.264Z,-0.10
2022-11-19T18:50:13.489Z,0.00
2022-11-19T18:53:02.353Z,0.00
2022-11-19T18:55:50.841Z,0.00
2022-11-19T18:58:40.744Z,0.00
2022-11-19T19:01:29.360Z,0.10
2022-11-19T19:04:18.256Z,0.20
2022-11-19T19:07:07.063Z,0.10
2022-11-19T19:09:55.889Z,0.10
2022-11-19T19:12:44.450Z,-0.10
2022-11-19T19:15:34.291Z,0.00
2022-11-19T19:18:22.859Z,0.00
2022-11-19T19:21:14.530Z,-0.10
2022-11-19T19:24:05.371Z,0.00
2022-11-19T19:26:53.820Z,0.00
2022-11-19T19:29:43.691Z,0.10
2022-11-19T19:32:33.579Z,-0.10
2022-11-19T19:35:22.222Z,-0.20
2022-11-19T19:38:10.780Z,0.00
2022-11-19T19:41:05.374Z,0.10
2022-11-19T19:43:57.620Z,0.10
2022-11-19T19:46:48.651Z,0.20
2022-11-19T19:49:39.239Z,0.20
2022-11-19T19:52:28.115Z,0.00
2022-11-19T19:55:17.012Z,-0.10
2022-11-19T19:58:07.396Z,0.00
2022-11-19T20:00:55.869Z,0.00
2022-11-19T20:03:47.348Z,0.00
2022-11-19T20:06:44.882Z,0.00
2022-11-19T20:09:33.299Z,0.00
2022-11-19T20:12:21.889Z,-0.10
2022-11-19T20:15:11.534Z,0.00
2022-11-19T20:18:00.140Z,-0.10
2022-11-19T20:20:48.985Z,-0.10
2022-11-19T20:23:40.448Z,-0.30
2022-11-19T20:26:31.320Z,-0.10
2022-11-19T20:29:22.012Z,-0.20
2022-11-19T20:32:10.787Z,-0.30
2022-11-19T20:34:59.315Z,-0.20
2022-11-19T20:37:48.800Z,-0.50
2022-11-19T20:40:38.715Z,-0.50
2022-11-19T20:43:50.163Z,-0.60
2022-11-19T20:46:40.969Z,-0.70
2022-11-19T20:49:31.498Z,-0.70
2022-11-19T20:52:21.678Z,-0.70
2022-11-19T20:55:10.428Z,-0.80
2022-11-19T20:58:01.600Z,-0.80
2022-11-19T21:00:50.148Z,-0.70
2022-11-19T21:03:39.359Z,-0.60
2022-11-19T21:06:28.528Z,-0.70
2022-11-19T21:09:17.351Z,-0.70
2022-11-19T21:12:06.432Z,-0.70
2022-11-19T21:14:56.540Z,-0.80
2022-11-19T21:17:45.226Z,-0.70
2022-11-19T21:20:33.918Z,-0.90
2022-11-19T21:23:22.543Z,-0.90
2022-11-19T21:26:13.045Z,-1.00
2022-11-19T21:29:01.817Z,-1.00
2022-11-19T21:31:52.162Z,-1.10
2022-11-19T21:34:41.923Z,-1.10
2022-11-19T21:37:30.528Z,-1.20
2022-11-19T21:40:19.250Z,-1.20
2022-11-19T21:43:08.210Z,-1.20
2022-11-19T21:45:57.939Z,-1.20
2022-11-19T21:48:47.785Z,-0.90
2022-11-19T21:51:36.265Z,-1.10
2022-11-19T21:54:24.811Z,-1.00
2022-11-19T21:57:13.262Z,-1.00
2022-11-19T22:00:01.755Z,-0.90
2022-11-19T22:02:50.273Z,-1.00
2022-11-19T22:05:40.147Z,-0.80
2022-11-19T22:08:31.231Z,-0.90
2022-11-19T22:11:32.408Z,-0.90
2022-11-19T22:14:20.997Z,-1.00
2022-11-19T22:17:09.781Z,-0.90
2022-11-19T22:19:58.590Z,-1.00
2022-11-19T22:22:48.405Z,-1.00
2022-11-19T22:25:37.096Z,-1.10
2022-11-19T22:28:25.820Z,-1.00
2022-11-19T22:31:15.580Z,-1.00
2022-11-19T22:34:04.218Z,-0.80
2022-11-19T22:36:52.955Z,-1.00
